createdAt,value
2023-03-23T15:59:45.844Z,97372.16
2023-03-23T16:02:24.240Z,97372.59
2023-03-23T16:04:52.784Z,97372.75
2023-03-23T16:07:24.662Z,97361.75
2023-03-23T16:09:52.278Z,97367.22
2023-03-23T16:12:23.165Z,97378.81
2023-03-23T16:14:50.831Z,97376.22
2023-03-23T16:17:21.769Z,97379.13
2023-03-23T16:19:50.057Z,97382.69
2023-03-23T16:22:18.544Z,97373.94
2023-03-23T16:24:46.547Z,97375.63
2023-03-23T16:27:15.078Z,97377.25
2023-03-23T16:30:02.272Z,97386.72
2023-03-23T16:32:30.851Z,97384.28
2023-03-23T16:34:58.533Z,97384.97
2023-03-23T16:37:26.152Z,97386.28
2023-03-23T16:39:53.789Z,97382.00
2023-03-23T16:42:21.084Z,97391.75
2023-03-23T16:44:50.807Z,97395.56
2023-03-23T16:47:25.728Z,97391.94
2023-03-23T16:49:54.085Z,97393.28
2023-03-23T16:52:21.776Z,97396.47
2023-03-23T16:54:49.355Z,97388.38
2023-03-23T16:57:16.754Z,97392.66
2023-03-23T16:59:44.457Z,97390.53
2023-03-23T17:02:13.009Z,97384.56
2023-03-23T17:04:46.306Z,97379.78
2023-03-23T17:07:14.726Z,97382.44
2023-03-23T17:09:42.753Z,97388.78
2023-03-23T17:12:10.254Z,97384.78
2023-03-23T17:14:37.909Z,97386.50
2023-03-23T17:17:05.928Z,97383.66
2023-03-23T17:19:34.314Z,97388.97
2023-03-23T17:22:02.069Z,97386.31
2023-03-23T17:24:29.795Z,97380.22
2023-03-23T17:26:58.577Z,97385.50
2023-03-23T17:29:26.388Z,97391.25
2023-03-23T17:31:53.812Z,97398.06
2023-03-23T17:34:21.573Z,97402.03
2023-03-23T17:36:49.224Z,97408.94
2023-03-23T17:39:17.574Z,97411.94
2023-03-23T17:41:45.352Z,97420.16
2023-03-23T17:44:12.983Z,97427.97
2023-03-23T17:46:40.258Z,97426.13
2023-03-23T17:49:07.833Z,97414.56
2023-03-23T17:51:35.516Z,97400.72
2023-03-23T17:54:03.202Z,97394.13
2023-03-23T17:56:30.893Z,97394.28
2023-03-23T17:58:58.641Z,97393.00
2023-03-23T18:01:26.205Z,97403.84
2023-03-23T18:03:53.982Z,97411.97
2023-03-23T18:06:21.379Z,97408.03
2023-03-23T18:08:49.203Z,97418.59
2023-03-23T18:11:16.532Z,97428.59
2023-03-23T18:13:44.097Z,97424.47
2023-03-23T18:16:11.391Z,97422.19
2023-03-23T18:18:40.518Z,97435.38
2023-03-23T18:21:10.761Z,97434.38
2023-03-23T18:23:49.294Z,97449.06
2023-03-23T18:26:24.394Z,97446.94
2023-03-23T18:28:52.422Z,97442.66
2023-03-23T18:31:21.165Z,97444.94
2023-03-23T18:33:51.725Z,97447.75
2023-03-23T18:36:23.421Z,97449.88
2023-03-23T18:38:51.563Z,97452.69
2023-03-23T18:41:19.256Z,97454.16
2023-03-23T18:43:47.246Z,97454.81
2023-03-23T18:46:14.746Z,97448.91
2023-03-23T18:48:42.634Z,97445.91
2023-03-23T18:51:10.564Z,97451.19
2023-03-23T18:53:38.313Z,97446.91
2023-03-23T18:56:17.402Z,97455.16
2023-03-23T18:58:46.320Z,97463.06
2023-03-23T19:01:17.213Z,97453.16
2023-03-23T19:03:46.032Z,97449.38
2023-03-23T19:06:23.993Z,97437.66
2023-03-23T19:08:53.559Z,97446.09
2023-03-23T19:11:27.580Z,97443.78
2023-03-23T19:14:02.163Z,97431.75
2023-03-23T19:16:35.913Z,97444.28
2023-03-23T19:19:07.746Z,97438.34
2023-03-23T19:21:35.635Z,97434.38
2023-03-23T19:24:03.923Z,97431.09
2023-03-23T19:26:39.635Z,97420.38
2023-03-23T19:31:48.253Z,97428.25
2023-03-23T19:34:16.919Z,97422.66
2023-03-23T19:36:54.341Z,97437.78
2023-03-23T19:39:27.332Z,97439.41
2023-03-23T19:41:56.255Z,97442.91
2023-03-23T19:44:23.938Z,97439.25
2023-03-23T19:46:51.820Z,97437.28
2023-03-23T19:49:21.098Z,97441.03
2023-03-23T19:51:49.037Z,97454.84
2023-03-23T19:54:16.740Z,97442.13
2023-03-23T19:56:44.770Z,97443.16
2023-03-23T19:59:16.313Z,97448.72
2023-03-23T20:01:45.482Z,97454.44
2023-03-23T20:04:13.333Z,97447.66
2023-03-23T20:06:41.521Z,97459.16
2023-03-23T20:09:09.466Z,97461.16
2023-03-23T20:11:37.327Z,97462.78
2023-03-23T20:14:05.698Z,97468.44
2023-03-23T20:16:33.642Z,97474.09
2023-03-23T20:19:01.279Z,97473.25
2023-03-23T20:21:29.412Z,97475.22
2023-03-23T20:23:58.878Z,97489.25
2023-03-23T20:26:34.464Z,97483.50
2023-03-23T20:29:02.786Z,97480.63
2023-03-23T20:31:36.740Z,97484.69
2023-03-23T20:34:11.514Z,97498.53
2023-03-23T20:36:45.518Z,97503.09
2023-03-23T20:39:21.414Z,97503.47
2023-03-23T20:41:58.757Z,97502.03
2023-03-23T20:44:31.119Z,97496.56
2023-03-23T20:46:59.814Z,97498.84
2023-03-23T20:49:38.680Z,97501.03
2023-03-23T20:52:08.482Z,97505.16
2023-03-23T20:54:38.072Z,97512.41
2023-03-23T20:57:05.603Z,97499.66
2023-03-23T20:59:33.513Z,97495.94
2023-03-23T21:02:01.256Z,97486.88
2023-03-23T21:04:30.286Z,97482.34
2023-03-23T21:06:57.917Z,97485.00
2023-03-23T21:09:25.736Z,97494.69
2023-03-23T21:11:53.887Z,97501.28
2023-03-23T21:14:21.621Z,97490.63
2023-03-23T21:16:49.255Z,97492.88
2023-03-23T21:19:17.324Z,97486.38
2023-03-23T21:21:56.835Z,97481.63
2023-03-23T21:24:31.388Z,97487.56
2023-03-23T21:27:03.070Z,97488.75
2023-03-23T21:29:30.947Z,97498.97
2023-03-23T21:34:29.768Z,97491.94
2023-03-23T21:36:58.647Z,97500.31
2023-03-23T21:39:26.416Z,97496.97
2023-03-23T21:41:54.038Z,97503.09
2023-03-23T21:44:22.246Z,97493.28
2023-03-23T21:46:56.182Z,97491.78
2023-03-23T21:49:27.916Z,97498.16
2023-03-23T21:52:03.422Z,97495.94
2023-03-23T21:54:44.833Z,97503.63
2023-03-23T21:57:18.468Z,97495.47
2023-03-23T22:00:23.894Z,97499.41
2023-03-23T22:02:53.319Z,97498.41
2023-03-23T22:05:40.654Z,97499.69
2023-03-23T22:08:10.500Z,97496.94
2023-03-23T22:11:01.198Z,97499.41
2023-03-23T22:13:34.527Z,97502.50
2023-03-23T22:16:10.665Z,97498.22
2023-03-23T22:19:02.616Z,97495.31
2023-03-23T22:21:31.711Z,97500.63
2023-03-23T22:24:09.758Z,97506.94
2023-03-23T22:26:42.523Z,97508.78
2023-03-23T22:29:11.396Z,97506.81
2023-03-23T22:31:40.589Z,97508.44
2023-03-23T22:34:08.954Z,97501.53
2023-03-23T22:36:44.282Z,97486.53
2023-03-23T22:39:12.676Z,97486.41
2023-03-23T22:41:42.386Z,97494.97
2023-03-23T22:44:20.501Z,97484.91
2023-03-23T22:46:49.399Z,97484.09
2023-03-23T22:49:16.861Z,97489.41
2023-03-23T22:51:45.341Z,97491.59
2023-03-23T22:54:13.044Z,97494.28
2023-03-23T22:56:41.134Z,97494.56
2023-03-23T22:59:09.956Z,97491.78
2023-03-23T23:01:37.802Z,97496.56
2023-03-23T23:04:11.829Z,97494.25
2023-03-23T23:06:40.754Z,97498.72
2023-03-23T23:09:10.829Z,97493.94
2023-03-23T23:11:48.859Z,97490.28
2023-03-23T23:14:17.794Z,97491.94
2023-03-23T23:16:47.499Z,97498.22
2023-03-23T23:19:16.183Z,97495.56
2023-03-23T23:21:47.564Z,97492.44
2023-03-23T23:24:18.151Z,97497.53
2023-03-23T23:26:55.677Z,97488.13
2023-03-23T23:29:23.705Z,97493.59
2023-03-23T23:32:11.520Z,97487.44
2023-03-23T23:34:46.078Z,97487.28
2023-03-23T23:37:22.908Z,97488.09
2023-03-23T23:39:50.348Z,97495.34
2023-03-23T23:42:18.436Z,97494.94
2023-03-23T23:44:46.686Z,97494.88
2023-03-23T23:47:16.706Z,97500.72
2023-03-23T23:49:45.318Z,97501.06
2023-03-23T23:52:20.373Z,97503.16
2023-03-23T23:54:54.734Z,97492.88
2023-03-23T23:57:29.566Z,97501.81
2023-03-23T23:59:59.667Z,97491.50
